Featured Flight

MET5760 - Boston to Baltimore

Embraer ERJ-170LR
N920AU
1 hr 15 mins
321 nm
Scheduled - Daily

Bid/PiRep Status

Bid was submitted on Jan 02 2017.

PiRep # 74599: Approved by Sean Doyle on January 4th, 2017 23:10 UTC

Departure

Departing from
Boston (BOS)
Departure gate
Scheduled Departure
GMT 0136
Local 2036
METAR KBOS 191754Z 25019G27KT 10SM SCT160 BKN200 13/01 A2967 RMK AO2 PK WND 25027/1753 SLP047 T01330011 10139 20050 58013
TAF KBOS 191728Z 1918/2024 27011KT P6SM BKN250 FM201000 32008KT P6SM FEW250 FM201400 33012G20KT P6SM SCT250
  • No charts available

Arrival

Arriving at
Baltimore (BWI)
Arrival gate
Scheduled Arrival
GMT 0251
Local 2151
METAR KBWI 191754Z 28012G18KT 10SM FEW100 SCT250 21/06 A2988 RMK AO2 SLP118 60000 T02060061 10206 20133 58004
TAF KBWI 191734Z 1918/2024 29012G21KT P6SM SCT120 FM200200 30008KT P6SM FEW250 FM200800 32004KT P6SM SCT150 FM201400 35008KT P6SM SCT150

Route Map

Planning Resources

PUT,JFK,COL,VCN,ENO
BURDY SEY HTO HOFFI SHLEP CREEL JOANI RBV COPES MXE STOEN SACRI
PATSS1.DEDHM DEDHM NELIE CMK J75 MXE V378 BAL
KBOS OOD PUT HFD PACER RBV OOD KBWI
PATSS2 PATSS NELIE CMK J75 MXE V378 BAL
Route:
OFP Layout:
Units:
Detailed Navlog:
ETOPS Planning:
Plan Stepclimbs:
Runway Analysis:
Include NOTAMS:
FIR NOTAMS:
Flight Maps:

Return Flights

MET765
Airbus A321-232
0000 GMT
MET5691
Embraer ERJ-170LR
1410 GMT
MET5759
Embraer ERJ-170LR
1740 GMT
MET5763
Embraer ERJ-170LR
1050 GMT

Popularity

Hub Current Bids PiReps this month Total PiReps
KMCI 0 0 1
KLAX 0 0 0
KBOS 0 0 1